Time;durP1;ratioP1;P1;durP2;ratioP2;P2;SDS_P1;SDS_P2;PMS_P1;PMS_P2;Temp;Humidity;BMP_temperature;BMP_pressure;BME280_temperature;BME280_humidity;BME280_pressure;Samples;Min_cycle;Max_cycle;Signal;HPM_P1;HPM_P2
2024/01/21 00:00:11;;;;;;;2.13;2.03;;;;;-4.60;96963.00;;;;5058144;28;20202;-62
2024/01/21 00:02:40;;;;;;;4.73;3.77;;;;;-4.60;96977.00;;;;5057833;28;20219;-61
2024/01/21 00:05:08;;;;;;;2.50;2.30;;;;;-4.60;96978.00;;;;5056078;28;20650;-62
2024/01/21 00:07:38;;;;;;;3.73;3.40;;;;;-4.70;96976.00;;;;5057713;28;20191;-60
2024/01/21 00:10:08;;;;;;;2.37;2.17;;;;;-4.70;96975.00;;;;5057838;28;20206;-60
2024/01/21 00:12:35;;;;;;;4.20;3.80;;;;;-4.80;96959.00;;;;5057457;28;20578;-60
2024/01/21 00:15:03;;;;;;;10.30;4.27;;;;;-4.90;96970.00;;;;5057251;28;20577;-61
2024/01/21 00:17:31;;;;;;;3.70;3.20;;;;;-5.00;96961.00;;;;5056995;28;20195;-60
2024/01/21 00:19:59;;;;;;;3.80;3.33;;;;;-5.00;96961.00;;;;5056718;28;20197;-62
2024/01/21 00:22:27;;;;;;;3.43;3.13;;;;;-5.10;96962.00;;;;5057237;28;20732;-61
2024/01/21 00:24:54;;;;;;;3.43;3.20;;;;;-5.20;96953.00;;;;5055636;28;20196;-62
2024/01/21 00:27:22;;;;;;;5.27;4.43;;;;;-5.10;96954.00;;;;5056955;28;20196;-61
2024/01/21 00:29:49;;;;;;;9.80;2.93;;;;;-5.20;96943.00;;;;5056893;28;20217;-61
2024/01/21 00:32:17;;;;;;;4.83;3.13;;;;;-5.10;96956.00;;;;5056909;28;20316;-60
2024/01/21 00:34:44;;;;;;;2.20;2.10;;;;;-5.00;96959.00;;;;5056337;28;20204;-61
2024/01/21 00:37:13;;;;;;;4.47;3.30;;;;;-5.10;96949.00;;;;5056269;28;20201;-60
2024/01/21 00:39:41;;;;;;;3.40;3.20;;;;;-5.00;96960.00;;;;5056767;28;20224;-61
2024/01/21 00:42:08;;;;;;;4.30;2.97;;;;;-5.00;96957.00;;;;5056302;28;20225;-62
2024/01/21 00:44:36;;;;;;;2.13;2.03;;;;;-4.90;96951.00;;;;5056941;28;20201;-60
2024/01/21 00:47:04;;;;;;;3.37;3.07;;;;;-4.90;96951.00;;;;5057038;28;20200;-61
2024/01/21 00:49:31;;;;;;;2.57;2.33;;;;;-4.90;96944.00;;;;5056578;28;20222;-61
2024/01/21 00:51:59;;;;;;;2.73;2.13;;;;;-4.90;96938.00;;;;5056396;28;20232;-61
2024/01/21 00:54:28;;;;;;;2.40;2.23;;;;;-5.00;96945.00;;;;5056134;28;20281;-61
2024/01/21 00:56:55;;;;;;;2.43;2.30;;;;;-5.00;96947.00;;;;5055757;28;20190;-61
2024/01/21 00:59:22;;;;;;;2.57;2.37;;;;;-5.00;96950.00;;;;5055604;28;20198;-60
2024/01/21 01:01:50;;;;;;;2.80;2.60;;;;;-5.00;96955.00;;;;5056491;28;20596;-61
2024/01/21 01:04:17;;;;;;;4.57;2.27;;;;;-5.00;96953.00;;;;5056432;28;20203;-61
2024/01/21 01:06:45;;;;;;;1.60;1.53;;;;;-5.00;96945.00;;;;5056144;28;20286;-61
2024/01/21 01:09:12;;;;;;;2.67;2.47;;;;;-5.10;96939.00;;;;5054794;28;20220;-61
2024/01/21 01:11:41;;;;;;;1.97;1.87;;;;;-5.20;96937.00;;;;5055290;28;20207;-60
2024/01/21 01:14:09;;;;;;;1.57;1.30;;;;;-5.20;96934.00;;;;5054851;28;20228;-60
2024/01/21 01:16:39;;;;;;;2.13;2.03;;;;;-5.10;96926.00;;;;5055102;28;20199;-60
2024/01/21 01:19:06;;;;;;;5.03;3.17;;;;;-5.00;96940.00;;;;5055461;28;20203;-60
2024/01/21 01:21:34;;;;;;;2.43;2.23;;;;;-5.10;96931.00;;;;5055464;28;20209;-60
2024/01/21 01:24:01;;;;;;;2.37;2.00;;;;;-5.10;96929.00;;;;5055960;28;20192;-60
2024/01/21 01:26:29;;;;;;;1.77;1.67;;;;;-5.20;96928.00;;;;5055853;28;20198;-61
2024/01/21 01:28:58;;;;;;;3.33;2.97;;;;;-5.30;96929.00;;;;5056229;28;20220;-61
2024/01/21 01:31:25;;;;;;;4.13;2.60;;;;;-5.30;96936.00;;;;5055092;28;20192;-61
2024/01/21 01:33:53;;;;;;;2.10;2.00;;;;;-5.30;96934.00;;;;5056342;28;20641;-61
2024/01/21 01:36:20;;;;;;;3.30;2.87;;;;;-5.40;96936.00;;;;5055327;28;20195;-61
2024/01/21 01:38:47;;;;;;;1.67;1.57;;;;;-5.40;96923.00;;;;5054256;28;20195;-61
2024/01/21 01:41:15;;;;;;;1.73;1.63;;;;;-5.30;96907.00;;;;5055334;28;20297;-61
2024/01/21 01:43:43;;;;;;;1.93;1.83;;;;;-5.30;96909.00;;;;5055444;28;20271;-60
2024/01/21 01:46:12;;;;;;;1.97;1.83;;;;;-5.40;96916.00;;;;5055228;28;20194;-60
2024/01/21 01:48:40;;;;;;;3.53;3.30;;;;;-5.30;96911.00;;;;5055090;28;20230;-60
2024/01/21 01:51:09;;;;;;;2.50;2.30;;;;;-5.40;96903.00;;;;5055353;28;20558;-60
2024/01/21 01:53:37;;;;;;;3.50;2.90;;;;;-5.40;96906.00;;;;5055068;28;20227;-60
2024/01/21 01:56:05;;;;;;;2.07;1.97;;;;;-5.50;96903.00;;;;5054680;28;20193;-60
2024/01/21 01:58:35;;;;;;;4.40;2.57;;;;;-5.50;96900.00;;;;5052969;28;20207;-62
2024/01/21 02:01:02;;;;;;;3.43;2.30;;;;;-5.50;96907.00;;;;5054039;28;20202;-60
2024/01/21 02:03:31;;;;;;;3.57;2.27;;;;;-5.50;96908.00;;;;5053942;28;20689;-60
2024/01/21 02:06:00;;;;;;;1.97;1.87;;;;;-5.50;96900.00;;;;5054206;28;20204;-61
2024/01/21 02:08:28;;;;;;;4.10;2.30;;;;;-5.60;96897.00;;;;5054165;28;20201;-61
2024/01/21 02:10:55;;;;;;;2.73;2.03;;;;;-5.50;96889.00;;;;5054073;28;20197;-61
2024/01/21 02:13:23;;;;;;;1.60;1.50;;;;;-5.60;96897.00;;;;5054719;28;20698;-62
2024/01/21 02:15:50;;;;;;;3.47;2.33;;;;;-5.50;96886.00;;;;5054312;28;20199;-61
2024/01/21 02:18:18;;;;;;;2.80;2.57;;;;;-5.50;96896.00;;;;5054086;28;20193;-60
2024/01/21 02:20:47;;;;;;;3.83;2.50;;;;;-5.50;96890.00;;;;5054210;28;20285;-60
2024/01/21 02:23:16;;;;;;;2.53;2.40;;;;;-5.50;96900.00;;;;5054690;28;20216;-60
2024/01/21 02:25:43;;;;;;;2.00;1.90;;;;;-5.50;96876.00;;;;5054646;28;20190;-62
2024/01/21 02:28:11;;;;;;;2.23;2.03;;;;;-5.50;96839.00;;;;5054217;28;20596;-60
2024/01/21 02:30:41;;;;;;;2.07;1.97;;;;;-5.60;96876.00;;;;5054113;28;20298;-62
2024/01/21 02:33:09;;;;;;;1.90;1.80;;;;;-5.70;96871.00;;;;5054329;28;20212;-62
2024/01/21 02:35:37;;;;;;;1.87;1.77;;;;;-5.60;96868.00;;;;5054277;28;20270;-62
2024/01/21 02:38:05;;;;;;;1.87;1.70;;;;;-5.50;96872.00;;;;5054454;28;20254;-61
2024/01/21 02:40:35;;;;;;;1.67;1.57;;;;;-5.60;96875.00;;;;5053990;28;20613;-61
2024/01/21 02:43:03;;;;;;;2.70;1.70;;;;;-5.70;96885.00;;;;5054135;28;20730;-61
2024/01/21 02:45:31;;;;;;;2.13;1.10;;;;;-5.70;96877.00;;;;5054135;28;20202;-60
2024/01/21 02:47:58;;;;;;;2.63;2.27;;;;;-5.70;96864.00;;;;5054298;28;20202;-60
2024/01/21 02:50:26;;;;;;;1.23;1.17;;;;;-5.70;96871.00;;;;5053834;28;20283;-60
2024/01/21 02:52:53;;;;;;;1.63;1.37;;;;;-5.70;96869.00;;;;5054043;28;20224;-61
2024/01/21 02:55:21;;;;;;;1.90;1.47;;;;;-5.40;96859.00;;;;5054399;28;20202;-60
2024/01/21 02:57:48;;;;;;;1.60;1.53;;;;;-5.20;96857.00;;;;5053761;28;20575;-60
2024/01/21 03:00:17;;;;;;;1.40;1.30;;;;;-5.30;96856.00;;;;5054346;28;20193;-60
2024/01/21 03:02:44;;;;;;;1.90;1.53;;;;;-5.20;96864.00;;;;5053501;28;20211;-60
2024/01/21 03:05:12;;;;;;;1.40;1.40;;;;;-5.10;96854.00;;;;5054388;28;20657;-60
2024/01/21 03:07:39;;;;;;;1.10;1.10;;;;;-5.00;96857.00;;;;5053655;28;20732;-61
2024/01/21 03:10:07;;;;;;;1.10;1.10;;;;;-4.90;96858.00;;;;5054186;28;20228;-61
2024/01/21 03:12:36;;;;;;;1.00;1.00;;;;;-4.80;96869.00;;;;5053906;28;20236;-61
2024/01/21 03:15:05;;;;;;;6.60;1.60;;;;;-4.90;96862.00;;;;5053881;28;20241;-60
2024/01/21 03:17:32;;;;;;;1.50;1.40;;;;;-4.90;96860.00;;;;5053205;28;20672;-61
2024/01/21 03:20:00;;;;;;;1.73;1.63;;;;;-5.00;96856.00;;;;5053062;28;20247;-61
2024/01/21 03:22:27;;;;;;;0.90;0.90;;;;;-4.90;96842.00;;;;5054227;28;20249;-61
2024/01/21 03:24:55;;;;;;;0.90;0.90;;;;;-4.90;96842.00;;;;5057726;28;20197;-61
2024/01/21 03:27:22;;;;;;;1.00;1.00;;;;;-4.90;96840.00;;;;5057695;28;20190;-61
2024/01/21 03:29:50;;;;;;;1.93;1.83;;;;;-5.00;96841.00;;;;5057739;28;20249;-61
2024/01/21 03:32:19;;;;;;;1.13;1.13;;;;;-4.90;96841.00;;;;5057433;28;20226;-62
2024/01/21 03:34:46;;;;;;;1.10;1.10;;;;;-4.90;96840.00;;;;5057970;28;20282;-62
2024/01/21 03:37:14;;;;;;;1.83;1.73;;;;;-5.00;96847.00;;;;5057333;28;20205;-62
2024/01/21 03:39:41;;;;;;;0.90;0.90;;;;;-5.10;96831.00;;;;5057620;28;20196;-61
2024/01/21 03:42:08;;;;;;;3.47;3.17;;;;;-5.00;96844.00;;;;5057196;28;20700;-61
2024/01/21 03:44:36;;;;;;;1.33;1.23;;;;;-4.90;96831.00;;;;5057480;28;20191;-62
2024/01/21 03:47:03;;;;;;;1.77;1.67;;;;;-4.70;96828.00;;;;5057372;28;20194;-62
2024/01/21 03:49:33;;;;;;;2.07;1.97;;;;;-4.80;96833.00;;;;5058276;28;20301;-61
2024/01/21 03:52:01;;;;;;;1.77;1.57;;;;;-4.70;96828.00;;;;5057419;28;20687;-62
2024/01/21 03:54:28;;;;;;;1.30;1.20;;;;;-4.70;96835.00;;;;5057300;28;20195;-61
2024/01/21 03:56:55;;;;;;;1.40;1.40;;;;;-4.60;96814.00;;;;5057392;28;20204;-61
2024/01/21 03:59:23;;;;;;;0.93;0.93;;;;;-4.60;96823.00;;;;5057291;28;20194;-61
2024/01/21 04:01:50;;;;;;;1.00;1.00;;;;;-4.50;96814.00;;;;5057298;28;20728;-61
2024/01/21 04:04:18;;;;;;;1.80;1.10;;;;;-4.40;96813.00;;;;5055853;28;20203;-61
2024/01/21 04:06:46;;;;;;;1.30;1.27;;;;;-4.20;96808.00;;;;5057134;28;20626;-61
2024/01/21 04:09:15;;;;;;;1.00;1.00;;;;;-4.20;96813.00;;;;5056837;28;20199;-61
2024/01/21 04:11:43;;;;;;;0.90;0.90;;;;;-4.20;96803.00;;;;5056623;28;20247;-62
2024/01/21 04:14:10;;;;;;;1.30;1.20;;;;;-4.10;96808.00;;;;5057056;28;20239;-61
2024/01/21 04:16:39;;;;;;;1.47;1.37;;;;;-4.00;96804.00;;;;5056896;28;20193;-61
2024/01/21 04:19:07;;;;;;;1.17;1.17;;;;;-3.90;96792.00;;;;5056913;28;20254;-61
2024/01/21 04:21:35;;;;;;;1.00;1.00;;;;;-3.90;96799.00;;;;5056209;28;20538;-60
2024/01/21 04:24:04;;;;;;;5.80;1.57;;;;;-4.20;96792.00;;;;5055864;28;20194;-60
2024/01/21 04:26:32;;;;;;;1.10;1.10;;;;;-4.10;96792.00;;;;5056919;28;20203;-61
2024/01/21 04:28:59;;;;;;;1.27;1.27;;;;;-4.10;96776.00;;;;5055350;28;20206;-60
2024/01/21 04:31:27;;;;;;;1.57;1.47;;;;;-4.00;96776.00;;;;5055447;28;20226;-60
2024/01/21 04:33:54;;;;;;;1.90;1.30;;;;;-4.10;96775.00;;;;5055418;28;20661;-60
2024/01/21 04:36:22;;;;;;;2.40;1.87;;;;;-4.00;96778.00;;;;5054316;28;20203;-60
2024/01/21 04:38:50;;;;;;;1.97;1.40;;;;;-3.80;96772.00;;;;5055746;28;20195;-60
2024/01/21 04:41:18;;;;;;;2.67;1.73;;;;;-3.90;96782.00;;;;5055577;28;20213;-61
2024/01/21 04:43:46;;;;;;;1.63;1.53;;;;;-4.00;96781.00;;;;5055183;28;20218;-61
2024/01/21 04:46:13;;;;;;;1.60;1.50;;;;;-4.00;96785.00;;;;5055509;28;20202;-60
2024/01/21 04:48:41;;;;;;;1.10;1.10;;;;;-4.00;96784.00;;;;5055383;28;20195;-61
2024/01/21 04:51:08;;;;;;;1.73;1.60;;;;;-4.00;96781.00;;;;5054260;28;20229;-61
2024/01/21 04:53:37;;;;;;;1.23;1.23;;;;;-4.00;96779.00;;;;5055651;28;20625;-61
2024/01/21 04:56:05;;;;;;;1.27;1.27;;;;;-3.90;96789.00;;;;5055925;28;20725;-60
2024/01/21 04:58:34;;;;;;;1.40;1.40;;;;;-3.90;96782.00;;;;5054349;28;20207;-60
2024/01/21 05:01:01;;;;;;;1.67;1.60;;;;;-3.90;96779.00;;;;5054764;28;20199;-60
2024/01/21 05:03:29;;;;;;;1.37;1.27;;;;;-3.80;96784.00;;;;5054720;28;20286;-60
2024/01/21 05:05:58;;;;;;;0.97;0.97;;;;;-4.00;96794.00;;;;5054803;28;20194;-60
2024/01/21 05:08:25;;;;;;;1.40;1.30;;;;;-4.30;96793.00;;;;5054796;28;20243;-60
2024/01/21 05:10:53;;;;;;;0.90;0.90;;;;;-4.40;96794.00;;;;5055953;28;20286;-60
2024/01/21 05:13:20;;;;;;;7.43;2.10;;;;;-4.30;96805.00;;;;5055881;28;20215;-60
2024/01/21 05:15:49;;;;;;;1.00;1.00;;;;;-4.10;96817.00;;;;5055485;28;20207;-62
2024/01/21 05:18:16;;;;;;;1.00;1.00;;;;;-4.20;96811.00;;;;5055704;28;20284;-61
2024/01/21 05:20:44;;;;;;;1.00;1.00;;;;;-4.70;96818.00;;;;5054975;28;20198;-61
2024/01/21 05:23:11;;;;;;;1.20;1.20;;;;;-4.60;96829.00;;;;5054936;28;20217;-61
2024/01/21 05:25:38;;;;;;;1.00;1.00;;;;;-4.50;96838.00;;;;5055125;28;20194;-61
2024/01/21 05:28:06;;;;;;;1.40;1.30;;;;;-4.50;96826.00;;;;5054997;28;20198;-61
2024/01/21 05:30:33;;;;;;;4.57;1.50;;;;;-4.70;96818.00;;;;5054285;28;20314;-60
2024/01/21 05:33:02;;;;;;;2.30;1.67;;;;;-4.50;96828.00;;;;5055075;28;20621;-60
2024/01/21 05:35:30;;;;;;;1.40;1.33;;;;;-4.50;96828.00;;;;5055127;28;20197;-60
2024/01/21 05:37:57;;;;;;;1.43;1.37;;;;;-4.50;96836.00;;;;5055002;28;20236;-61
2024/01/21 05:40:25;;;;;;;1.97;1.63;;;;;-4.80;96828.00;;;;5055167;28;20202;-61
2024/01/21 05:42:52;;;;;;;1.83;1.73;;;;;-4.70;96842.00;;;;5055066;28;20307;-61
2024/01/21 05:45:20;;;;;;;1.03;1.03;;;;;-4.70;96848.00;;;;5054406;28;20195;-61
2024/01/21 05:47:48;;;;;;;1.67;1.57;;;;;-4.70;96840.00;;;;5054832;28;20195;-60
2024/01/21 05:50:18;;;;;;;0.87;0.87;;;;;-4.70;96842.00;;;;5055083;28;20210;-61
2024/01/21 05:52:45;;;;;;;1.03;1.03;;;;;-4.60;96846.00;;;;5055019;28;20238;-61
2024/01/21 05:55:13;;;;;;;2.03;1.50;;;;;-4.30;96854.00;;;;5054921;28;20198;-61
2024/01/21 05:57:41;;;;;;;1.60;1.33;;;;;-4.50;96851.00;;;;5054543;28;20555;-61
2024/01/21 06:00:10;;;;;;;1.80;1.70;;;;;-4.60;96849.00;;;;5054511;28;20190;-61
2024/01/21 06:02:37;;;;;;;0.90;0.90;;;;;-4.90;96856.00;;;;5054535;28;20209;-61
2024/01/21 06:05:05;;;;;;;1.47;1.37;;;;;-5.20;96854.00;;;;5054037;28;20681;-61
2024/01/21 06:07:34;;;;;;;1.40;1.40;;;;;-5.00;96864.00;;;;5054813;28;20226;-61
2024/01/21 06:10:01;;;;;;;1.53;1.43;;;;;-4.80;96855.00;;;;5054707;28;20209;-61
2024/01/21 06:12:29;;;;;;;1.47;1.37;;;;;-4.70;96854.00;;;;5054556;28;20216;-61
2024/01/21 06:14:59;;;;;;;1.20;1.20;;;;;-4.70;96856.00;;;;5054751;28;20276;-61
2024/01/21 06:17:26;;;;;;;1.53;1.53;;;;;-4.70;96857.00;;;;5054932;28;20198;-61
2024/01/21 06:19:53;;;;;;;2.27;2.17;;;;;-4.70;96856.00;;;;5054417;28;20205;-61
2024/01/21 06:22:21;;;;;;;1.80;1.53;;;;;-4.70;96852.00;;;;5054420;28;20622;-61
2024/01/21 06:24:50;;;;;;;2.27;2.07;;;;;-4.70;96855.00;;;;5054147;28;20200;-61
2024/01/21 06:27:17;;;;;;;4.23;2.03;;;;;-4.70;96851.00;;;;5054077;28;20213;-60
2024/01/21 06:29:45;;;;;;;1.67;1.57;;;;;-4.70;96854.00;;;;5054433;28;20203;-60
2024/01/21 06:32:13;;;;;;;2.83;2.27;;;;;-4.60;96854.00;;;;5054725;28;20788;-60
2024/01/21 06:34:40;;;;;;;1.23;1.23;;;;;-4.70;96846.00;;;;5054710;28;20197;-60
2024/01/21 06:37:08;;;;;;;1.43;1.33;;;;;-4.60;96837.00;;;;5054276;28;20199;-60
2024/01/21 06:39:35;;;;;;;2.67;2.40;;;;;-4.60;96840.00;;;;5054221;28;20203;-60
2024/01/21 06:42:04;;;;;;;2.10;1.93;;;;;-4.70;96852.00;;;;5053755;28;20690;-60
2024/01/21 06:44:35;;;;;;;2.60;2.40;;;;;-4.70;96857.00;;;;5053843;28;20663;-60
2024/01/21 06:47:03;;;;;;;1.50;1.40;;;;;-4.60;96863.00;;;;5053476;28;20202;-60
2024/01/21 06:49:30;;;;;;;3.10;2.30;;;;;-4.70;96861.00;;;;5053702;28;20198;-60
2024/01/21 06:51:58;;;;;;;1.30;1.30;;;;;-4.60;96858.00;;;;5053107;28;20725;-61
2024/01/21 06:54:25;;;;;;;2.40;1.30;;;;;-4.70;96862.00;;;;5053817;28;20197;-61
2024/01/21 06:56:53;;;;;;;1.33;1.30;;;;;-4.70;96863.00;;;;5056452;28;20670;-62
2024/01/21 06:59:21;;;;;;;1.63;1.53;;;;;-4.70;96865.00;;;;5058321;28;20200;-61
2024/01/21 07:01:49;;;;;;;1.47;1.43;;;;;-4.70;96864.00;;;;5058304;28;20559;-60
2024/01/21 07:04:18;;;;;;;1.87;1.77;;;;;-4.80;96856.00;;;;5058313;28;20187;-62
2024/01/21 07:06:46;;;;;;;1.37;1.27;;;;;-4.80;96871.00;;;;5058107;28;20245;-61
2024/01/21 07:09:16;;;;;;;2.13;1.97;;;;;-4.80;96872.00;;;;5058517;28;20253;-61
2024/01/21 07:11:43;;;;;;;19.23;1.43;;;;;-4.80;96876.00;;;;5058144;28;20216;-61
2024/01/21 07:14:11;;;;;;;1.40;1.30;;;;;-4.80;96885.00;;;;5058667;28;20223;-61
2024/01/21 07:16:42;;;;;;;1.87;1.77;;;;;-4.80;96885.00;;;;5058046;28;20190;-61
2024/01/21 07:19:09;;;;;;;1.47;1.47;;;;;-4.80;96891.00;;;;5058490;28;20200;-61
2024/01/21 07:21:36;;;;;;;5.40;2.10;;;;;-4.70;96897.00;;;;5057735;28;20189;-61
2024/01/21 07:24:04;;;;;;;1.23;1.23;;;;;-4.70;96886.00;;;;5058011;28;20222;-60
2024/01/21 07:26:32;;;;;;;1.87;1.77;;;;;-4.70;96891.00;;;;5057835;28;20198;-61
2024/01/21 07:28:59;;;;;;;1.03;1.03;;;;;-4.60;96876.00;;;;5057789;28;20218;-60
2024/01/21 07:31:27;;;;;;;1.03;1.03;;;;;-4.60;96875.00;;;;5057854;28;20222;-60
2024/01/21 07:33:55;;;;;;;1.73;1.63;;;;;-4.40;96883.00;;;;5057522;28;20316;-60
2024/01/21 07:36:23;;;;;;;1.90;1.80;;;;;-4.40;96880.00;;;;5058254;28;20221;-60
2024/01/21 07:38:51;;;;;;;2.40;2.20;;;;;-4.30;96881.00;;;;5057742;28;20191;-60
2024/01/21 07:41:18;;;;;;;5.80;3.00;;;;;-4.20;96882.00;;;;5057785;28;20199;-60
2024/01/21 07:43:45;;;;;;;2.43;1.73;;;;;-4.20;96877.00;;;;5057386;28;20221;-60
2024/01/21 07:46:13;;;;;;;1.80;1.70;;;;;-4.20;96879.00;;;;5057926;28;20648;-62
2024/01/21 07:48:40;;;;;;;1.37;1.27;;;;;-4.10;96865.00;;;;5057576;28;20241;-60
2024/01/21 07:51:09;;;;;;;2.67;2.47;;;;;-4.00;96874.00;;;;5057388;28;20587;-60
2024/01/21 07:53:37;;;;;;;1.43;1.33;;;;;-4.00;96877.00;;;;5057270;28;20218;-62
2024/01/21 07:56:05;;;;;;;1.33;1.30;;;;;-3.90;96876.00;;;;5057244;28;20273;-60
2024/01/21 07:58:32;;;;;;;4.33;2.70;;;;;-3.90;96884.00;;;;5056708;28;20675;-60
2024/01/21 08:01:00;;;;;;;1.60;1.50;;;;;-3.90;96888.00;;;;5056535;28;20195;-60
2024/01/21 08:03:27;;;;;;;1.20;1.20;;;;;-3.70;96896.00;;;;5057483;28;20686;-61
2024/01/21 08:05:55;;;;;;;1.70;1.53;;;;;-3.60;96891.00;;;;5056803;28;20196;-60
2024/01/21 08:08:24;;;;;;;1.40;1.30;;;;;-3.60;96891.00;;;;5056619;28;20185;-60
2024/01/21 08:10:51;;;;;;;1.83;1.53;;;;;-3.60;96892.00;;;;5056442;28;20222;-60
2024/01/21 08:13:19;;;;;;;2.87;2.63;;;;;-3.50;96891.00;;;;5056408;28;20235;-60
2024/01/21 08:15:46;;;;;;;2.77;2.27;;;;;-3.50;96885.00;;;;5056575;28;20207;-61
2024/01/21 08:18:14;;;;;;;2.10;2.00;;;;;-3.30;96888.00;;;;5057089;28;20198;-60
2024/01/21 08:20:41;;;;;;;1.73;1.63;;;;;-3.20;96885.00;;;;5056503;28;20195;-61
2024/01/21 08:23:11;;;;;;;1.93;1.83;;;;;-3.20;96887.00;;;;5056252;28;20305;-60
2024/01/21 08:25:40;;;;;;;2.20;2.00;;;;;-3.10;96892.00;;;;5056582;28;20192;-61
2024/01/21 08:28:07;;;;;;;2.97;2.77;;;;;-3.10;96893.00;;;;5056825;28;20194;-60
2024/01/21 08:30:35;;;;;;;3.50;2.90;;;;;-3.10;96889.00;;;;5054510;28;20192;-60
2024/01/21 08:33:02;;;;;;;7.03;3.73;;;;;-3.10;96893.00;;;;5056370;28;20223;-60
2024/01/21 08:35:30;;;;;;;2.37;2.27;;;;;-3.00;96886.00;;;;5055756;28;20241;-60
2024/01/21 08:37:57;;;;;;;2.37;2.17;;;;;-3.00;96892.00;;;;5055838;28;20266;-60
2024/01/21 08:40:25;;;;;;;2.47;1.90;;;;;-2.90;96890.00;;;;5055905;28;20200;-60
2024/01/21 08:42:53;;;;;;;2.33;2.13;;;;;-3.00;96885.00;;;;5056186;28;20633;-60
2024/01/21 08:45:21;;;;;;;1.50;1.40;;;;;-3.10;96886.00;;;;5056266;28;20195;-61
2024/01/21 08:47:48;;;;;;;1.60;1.50;;;;;-3.20;96904.00;;;;5055838;28;20584;-60
2024/01/21 08:50:16;;;;;;;1.50;1.40;;;;;-3.20;96901.00;;;;5053834;28;20660;-60
2024/01/21 08:52:43;;;;;;;1.47;1.40;;;;;-3.10;96905.00;;;;5055510;28;20216;-60
2024/01/21 08:55:11;;;;;;;2.07;1.87;;;;;-3.00;96903.00;;;;5055694;28;20188;-60
2024/01/21 08:57:39;;;;;;;0.87;0.87;;;;;-2.50;96907.00;;;;5055327;28;20190;-60
2024/01/21 09:00:10;;;;;;;1.27;1.27;;;;;-2.00;96911.00;;;;5055003;28;20203;-61
2024/01/21 09:02:37;;;;;;;1.67;1.57;;;;;-1.80;96913.00;;;;5055851;28;20675;-60
2024/01/21 09:05:05;;;;;;;3.23;2.93;;;;;-2.00;96906.00;;;;5055516;28;20610;-62
2024/01/21 09:07:33;;;;;;;1.87;1.77;;;;;-2.00;96913.00;;;;5055313;28;20674;-61
2024/01/21 09:10:03;;;;;;;1.70;1.60;;;;;-2.10;96909.00;;;;5055197;28;20660;-62
2024/01/21 09:12:31;;;;;;;1.47;1.40;;;;;-2.10;96895.00;;;;5055198;28;20628;-63
2024/01/21 09:14:59;;;;;;;1.13;1.13;;;;;-2.10;96902.00;;;;5056125;28;20229;-61
2024/01/21 09:17:28;;;;;;;3.13;2.50;;;;;-2.00;96887.00;;;;5055466;28;20664;-61
2024/01/21 09:19:55;;;;;;;1.40;1.40;;;;;-2.00;96883.00;;;;5054427;28;20207;-61
2024/01/21 09:22:23;;;;;;;2.27;2.17;;;;;-2.10;96879.00;;;;5055344;28;20591;-61
2024/01/21 09:24:51;;;;;;;2.30;2.03;;;;;-2.00;96881.00;;;;5055717;28;20219;-61
2024/01/21 09:27:18;;;;;;;2.77;2.57;;;;;-2.00;96891.00;;;;5055783;28;20273;-61
2024/01/21 09:29:46;;;;;;;4.37;2.57;;;;;-1.90;96897.00;;;;5054922;28;20571;-62
2024/01/21 09:32:13;;;;;;;2.53;2.30;;;;;-1.80;96894.00;;;;5053763;28;20226;-61
2024/01/21 09:34:43;;;;;;;1.63;1.53;;;;;-2.00;96908.00;;;;5055038;28;20674;-61
2024/01/21 09:37:11;;;;;;;2.93;2.73;;;;;-1.80;96910.00;;;;5055246;28;20196;-61
2024/01/21 09:39:38;;;;;;;5.17;3.20;;;;;-1.80;96917.00;;;;5055270;28;20314;-61
2024/01/21 09:42:08;;;;;;;2.43;2.23;;;;;-1.60;96919.00;;;;5054766;28;20247;-61
2024/01/21 09:44:36;;;;;;;1.93;1.83;;;;;-1.50;96912.00;;;;5054763;28;20194;-61
2024/01/21 09:47:04;;;;;;;3.53;2.53;;;;;-1.60;96914.00;;;;5053916;28;20537;-61
2024/01/21 09:49:32;;;;;;;2.73;2.50;;;;;-1.50;96929.00;;;;5054786;28;20224;-60
2024/01/21 09:52:06;;;;;;;1.90;1.77;;;;;-1.50;96927.00;;;;5055156;28;20550;-62
2024/01/21 09:54:33;;;;;;;2.63;1.90;;;;;-1.40;96932.00;;;;5055235;28;20195;-60
2024/01/21 09:57:06;;;;;;;2.47;2.27;;;;;-1.30;96946.00;;;;5054627;28;20293;-61
2024/01/21 09:59:34;;;;;;;4.07;3.00;;;;;-1.20;96942.00;;;;5054967;28;20200;-61
2024/01/21 10:02:01;;;;;;;3.57;1.97;;;;;-1.50;96944.00;;;;5054477;28;20230;-61
2024/01/21 10:04:29;;;;;;;4.20;2.60;;;;;-1.50;96953.00;;;;5054612;28;20196;-60
2024/01/21 10:06:58;;;;;;;2.30;2.13;;;;;-1.40;96944.00;;;;5053078;28;20579;-60
2024/01/21 10:09:27;;;;;;;2.83;2.63;;;;;-1.40;96942.00;;;;5054917;28;20275;-61
2024/01/21 10:11:56;;;;;;;6.93;3.47;;;;;-1.40;96933.00;;;;5053818;28;20223;-60
2024/01/21 10:14:25;;;;;;;3.70;3.10;;;;;-1.50;96927.00;;;;5054621;28;20196;-61
2024/01/21 10:16:53;;;;;;;4.97;3.57;;;;;-1.60;96894.00;;;;5054175;28;20550;-61
2024/01/21 10:19:26;;;;;;;3.03;2.83;;;;;-1.20;96877.00;;;;5054418;28;20651;-60
2024/01/21 10:22:08;;;;;;;1.13;1.13;;;;;-1.20;96891.00;;;;5053795;28;20232;-60
2024/01/21 10:24:39;;;;;;;4.37;3.27;;;;;-0.80;96916.00;;;;5054145;28;20245;-61
2024/01/21 10:27:08;;;;;;;3.20;2.93;;;;;-0.90;96920.00;;;;5053960;28;20219;-61
2024/01/21 10:29:41;;;;;;;2.57;2.37;;;;;-1.00;96914.00;;;;5053938;28;20188;-61
2024/01/21 10:32:09;;;;;;;1.87;1.57;;;;;-1.30;96928.00;;;;5053616;28;20620;-60
2024/01/21 10:34:38;;;;;;;1.73;1.63;;;;;-1.10;96913.00;;;;5053895;28;20196;-60
2024/01/21 10:37:06;;;;;;;2.60;1.70;;;;;-1.20;96928.00;;;;5052359;28;20188;-61
2024/01/21 10:39:38;;;;;;;1.87;1.77;;;;;-0.90;96935.00;;;;5053416;28;20601;-61
2024/01/21 10:42:07;;;;;;;1.50;1.40;;;;;-0.90;96922.00;;;;5053244;28;20219;-61
2024/01/21 10:44:35;;;;;;;1.33;1.30;;;;;-0.80;96928.00;;;;5053318;28;20188;-61
2024/01/21 10:47:05;;;;;;;8.40;2.90;;;;;-0.60;96925.00;;;;5053550;28;20668;-61
2024/01/21 10:49:34;;;;;;;0.90;0.90;;;;;-0.40;96909.00;;;;5053652;28;20196;-61
2024/01/21 10:52:02;;;;;;;2.43;2.30;;;;;-0.20;96912.00;;;;5053575;28;20655;-61
2024/01/21 10:54:30;;;;;;;3.27;2.97;;;;;0.10;96921.00;;;;5054058;28;20199;-61
2024/01/21 10:57:01;;;;;;;2.70;2.50;;;;;0.30;96917.00;;;;5052350;28;20207;-61
2024/01/21 10:59:30;;;;;;;1.87;1.77;;;;;0.40;96936.00;;;;5052870;28;20201;-60
2024/01/21 11:01:58;;;;;;;3.37;3.10;;;;;0.40;96948.00;;;;5053167;28;20283;-61
2024/01/21 11:04:27;;;;;;;2.13;2.00;;;;;0.40;96977.00;;;;5053597;28;20247;-61
2024/01/21 11:06:55;;;;;;;1.70;1.60;;;;;0.30;96983.00;;;;5053915;28;20197;-61
2024/01/21 11:09:28;;;;;;;9.23;2.60;;;;;0.30;96979.00;;;;5053466;28;20192;-61
2024/01/21 11:11:56;;;;;;;1.93;1.83;;;;;0.10;96982.00;;;;5053855;28;20307;-61
2024/01/21 11:14:32;;;;;;;1.60;1.50;;;;;0.00;96976.00;;;;5053465;28;20201;-61
2024/01/21 11:17:01;;;;;;;2.43;2.23;;;;;0.10;97000.00;;;;5053858;28;20496;-61
2024/01/21 11:19:37;;;;;;;5.60;2.37;;;;;0.20;97005.00;;;;5053679;28;20210;-62
2024/01/21 11:22:05;;;;;;;1.80;1.63;;;;;0.30;97011.00;;;;5053541;28;20212;-62
2024/01/21 11:24:33;;;;;;;2.63;2.43;;;;;0.20;97029.00;;;;5053809;28;20247;-61
2024/01/21 11:27:01;;;;;;;2.83;2.30;;;;;0.40;97025.00;;;;5052315;28;20198;-62
2024/01/21 11:29:32;;;;;;;3.07;2.80;;;;;0.60;97021.00;;;;5053444;28;20194;-61
2024/01/21 11:32:01;;;;;;;3.80;2.27;;;;;0.80;97015.00;;;;5053326;28;20228;-61
2024/01/21 11:34:30;;;;;;;2.40;2.20;;;;;0.90;97009.00;;;;5052788;28;20198;-61
2024/01/21 11:36:58;;;;;;;2.53;2.33;;;;;0.90;96980.00;;;;5051704;28;20199;-61
2024/01/21 11:39:26;;;;;;;3.63;3.33;;;;;1.10;96975.00;;;;5053207;28;20194;-61
2024/01/21 11:41:53;;;;;;;3.13;2.83;;;;;1.30;96957.00;;;;5051583;28;20232;-61
2024/01/21 11:44:23;;;;;;;5.73;2.83;;;;;1.20;96961.00;;;;5055981;28;20201;-61
2024/01/21 11:46:53;;;;;;;2.63;2.43;;;;;1.50;96967.00;;;;5056376;28;20195;-61
2024/01/21 11:49:22;;;;;;;3.33;3.00;;;;;1.80;96974.00;;;;5056450;28;20191;-61
2024/01/21 11:51:49;;;;;;;2.43;2.23;;;;;2.00;96964.00;;;;5056248;28;20218;-62
2024/01/21 11:54:19;;;;;;;2.43;2.30;;;;;2.40;96960.00;;;;5056523;28;20205;-61
2024/01/21 11:56:47;;;;;;;2.23;2.07;;;;;3.40;96945.00;;;;5055853;28;20199;-61
2024/01/21 11:59:15;;;;;;;2.03;1.93;;;;;4.80;96925.00;;;;5055943;28;20196;-61
2024/01/21 12:01:44;;;;;;;3.70;1.97;;;;;6.20;96887.00;;;;5054782;28;20587;-61
2024/01/21 12:04:13;;;;;;;2.40;2.20;;;;;7.60;96858.00;;;;5055704;28;20196;-61
2024/01/21 12:06:42;;;;;;;6.50;3.40;;;;;8.80;96841.00;;;;5055671;28;20240;-61
2024/01/21 12:09:11;;;;;;;3.73;2.10;;;;;10.00;96840.00;;;;5055871;28;20189;-61
2024/01/21 12:11:40;;;;;;;1.97;1.87;;;;;12.30;96834.00;;;;5055545;28;20188;-61
2024/01/21 12:14:09;;;;;;;2.57;2.07;;;;;14.20;96830.00;;;;5054239;28;20202;-61
2024/01/21 12:16:40;;;;;;;1.60;1.50;;;;;15.40;96814.00;;;;5056008;28;20249;-61
2024/01/21 12:19:08;;;;;;;4.40;1.70;;;;;15.10;96807.00;;;;5055974;28;20192;-61
2024/01/21 12:21:37;;;;;;;1.20;1.10;;;;;15.10;96882.00;;;;5056268;28;20192;-61